Aérodrome :
LOGIN :

S'inscrire | Disclaimer

   EN    FR    IT 

 










Légende :    VFR   VFR Marginal   IFR   IFR Intensif   IFR Très Intensif
Visi : 
Plafond : 
>= 8 km
>= 3000ft
5 à 8 km
1000 à 3000 ft
1500m à 5 km
500 à 1000 ft
800 à 1500m
200 à 500 ft
< 800m
< 200 ft
Symboles :   Orages  Brouillard  Fortes neiges  Fortes précipitations  Vent > 20 kt
SIGMETs :   Divers  Orages  Givrage  Turbulence  Onde Orograph.  Cendres Volcan.






- Altitude de l'aérodrome : 308 ft


ESCF - Malmen AB

DERNIER METAR :
  • 201350Z 06008KT 9999 FEW017 BKN063 07/06 Q1024

METARs EXPIRÉS :
  • 201320Z 06006KT 9999 FEW008 BKN069 07/06 Q1024
  • 201250Z 07005KT CAVOK 07/06 Q1024
  • 201220Z 08003KT 9999 FEW008 BKN068 07/06 Q1024
  • 201150Z 10003KT 070V130 CAVOK 06/06 Q1024
  • 201120Z 08004KT CAVOK 06/06 Q1024

TAF TAF ESCF
Valide du 20 à 12h jusqu'au 20 à 21h UTC


201130Z 2012/2021 09005KT 9999 SCT015
PROB30 2013/2015 BKN008
PROB30 2015/2018 3000 BR BKN003
PROB30 2018/2021 BKN008 RMK MIL



MET'MAP, la Météo Aéronautique d'un coup d'oeil ! - Copyright ORBIFLY Décembre 2007 - Disclaimer

ORBIFLY MET'MAP TEAM :

Programmation & Développement : Alexandra Zaïnal
Conception & Développement : Baudouin d'Aumeries
Co-Programmation & Développement : Marc-Olivier Méhu
Soutien technique & logistique : Manuel Goepfert

Contact : metmap@orbifly.com




SOURCES & CREDITS :

   NOAA